Time;durP1;ratioP1;P1;durP2;ratioP2;P2;SDS_P1;SDS_P2;PMS_P1;PMS_P2;Temp;Humidity;BMP_temperature;BMP_pressure;BME280_temperature;BME280_humidity;BME280_pressure;Samples;Min_cycle;Max_cycle;Signal;HPM_P1;HPM_P2
2021/07/27 00:00:56;;;;;;;59.70;34.85;;;17.90;99.90;;;;;;5062186;28;25102;-65
2021/07/27 00:03:21;;;;;;;67.25;35.17;;;18.00;99.90;;;;;;5060874;28;25163;-65
2021/07/27 00:05:47;;;;;;;55.40;34.58;;;18.00;99.90;;;;;;5064357;28;25148;-67
2021/07/27 00:08:13;;;;;;;77.47;35.47;;;18.00;99.90;;;;;;5042400;28;25060;-66
2021/07/27 00:10:39;;;;;;;65.60;36.30;;;17.90;99.90;;;;;;5067326;28;25092;-66
2021/07/27 00:13:05;;;;;;;61.42;36.17;;;17.90;99.90;;;;;;5066826;28;25055;-65
2021/07/27 00:15:31;;;;;;;73.70;38.67;;;17.90;99.90;;;;;;5064052;28;25063;-67
2021/07/27 00:17:57;;;;;;;82.18;42.25;;;17.90;99.90;;;;;;5062907;28;25075;-66
2021/07/27 00:20:23;;;;;;;69.72;39.28;;;17.90;99.90;;;;;;5063127;28;25155;-66
2021/07/27 00:22:49;;;;;;;70.70;41.22;;;17.90;99.90;;;;;;5061884;28;25102;-67
2021/07/27 00:25:15;;;;;;;85.90;43.33;;;17.90;99.90;;;;;;5073602;28;25158;-65
2021/07/27 00:27:41;;;;;;;91.93;45.50;;;17.80;99.90;;;;;;5074467;28;25134;-66
2021/07/27 00:30:08;;;;;;;95.88;48.03;;;17.70;99.90;;;;;;5049520;28;25143;-66
2021/07/27 00:32:41;;;;;;;90.25;48.03;;;17.80;99.90;;;;;;5066338;28;25066;-65
2021/07/27 00:35:09;;;;;;;99.03;48.60;;;17.80;99.90;;;;;;5067402;28;25060;-65
2021/07/27 00:37:35;;;;;;;101.40;50.67;;;17.70;99.90;;;;;;5069818;28;25061;-66
2021/07/27 00:40:02;;;;;;;110.30;52.97;;;17.80;99.90;;;;;;5072505;28;25057;-64
2021/07/27 00:42:30;;;;;;;105.20;51.95;;;17.80;99.90;;;;;;5068246;28;25079;-65
2021/07/27 00:44:56;;;;;;;111.05;52.42;;;17.90;99.90;;;;;;5080847;28;25097;-64
2021/07/27 00:47:21;;;;;;;110.30;53.13;;;17.90;99.90;;;;;;5073782;28;25145;-66
2021/07/27 00:49:47;;;;;;;119.60;54.70;;;17.80;99.90;;;;;;5071089;28;25094;-66
2021/07/27 00:52:13;;;;;;;112.22;52.97;;;17.80;99.90;;;;;;5059809;28;25073;-65
2021/07/27 00:54:40;;;;;;;120.40;55.42;;;17.90;99.90;;;;;;5071742;28;25072;-66
2021/07/27 00:57:05;;;;;;;111.63;54.30;;;18.00;99.90;;;;;;5061813;28;25150;-67
2021/07/27 00:59:31;;;;;;;112.82;52.92;;;17.90;99.90;;;;;;5086383;28;25107;-64
2021/07/27 01:01:57;;;;;;;112.20;51.60;;;17.90;99.90;;;;;;5071850;28;25099;-65
2021/07/27 01:04:23;;;;;;;118.18;54.10;;;17.90;99.90;;;;;;5046649;28;25074;-65
2021/07/27 01:06:49;;;;;;;114.93;51.53;;;17.80;99.90;;;;;;5065336;28;25140;-64
2021/07/27 01:09:15;;;;;;;115.97;51.00;;;17.90;99.90;;;;;;5067006;28;25048;-66
2021/07/27 01:11:42;;;;;;;113.85;51.58;;;17.90;99.90;;;;;;5058974;28;25060;-64
2021/07/27 01:14:08;;;;;;;129.05;53.28;;;17.90;99.90;;;;;;5052197;28;25143;-65
2021/07/27 01:16:35;;;;;;;115.25;51.75;;;17.80;99.90;;;;;;5066725;28;25065;-65
2021/07/27 01:19:23;;;;;;;123.32;54.22;;;17.70;99.90;;;;;;5068010;28;25104;-66
2021/07/27 01:38:40;;;;;;;136.95;60.08;;;17.50;99.90;;;;;;5056787;28;25074;-65
2021/07/27 01:43:41;;;;;;;139.85;59.25;;;17.40;99.90;;;;;;5061755;28;25126;-64
2021/07/27 01:46:09;;;;;;;144.10;61.65;;;17.40;99.90;;;;;;5074923;28;25074;-64
2021/07/27 01:48:34;;;;;;;112.70;55.95;;;17.40;99.90;;;;;;5073181;28;25158;-65
2021/07/27 01:51:00;;;;;;;123.45;58.60;;;17.40;99.90;;;;;;5086232;28;25150;-66
2021/07/27 01:53:35;;;;;;;146.20;61.63;;;17.30;99.90;;;;;;5059751;28;25049;-67
2021/07/27 01:56:01;;;;;;;128.02;59.08;;;17.30;99.90;;;;;;5079983;28;25063;-64
2021/07/27 01:58:27;;;;;;;118.72;58.13;;;17.30;99.90;;;;;;5070665;28;25060;-64
2021/07/27 02:00:53;;;;;;;143.27;60.85;;;17.30;99.90;;;;;;5070525;28;25100;-64
2021/07/27 02:03:18;;;;;;;139.52;60.83;;;17.30;99.90;;;;;;5060984;28;25074;-64
2021/07/27 02:05:44;;;;;;;133.88;60.33;;;17.40;99.90;;;;;;5066633;28;25083;-65
2021/07/27 02:08:11;;;;;;;127.28;59.20;;;17.30;99.90;;;;;;5060576;28;25100;-64
2021/07/27 02:10:38;;;;;;;131.07;60.33;;;17.30;99.90;;;;;;5063761;28;25167;-65
2021/07/27 02:13:15;;;;;;;120.15;57.58;;;17.20;99.90;;;;;;5066683;28;25058;-65
2021/07/27 02:15:44;;;;;;;124.50;58.10;;;17.10;99.90;;;;;;5042632;28;25072;-64
2021/07/27 02:18:10;;;;;;;138.30;60.30;;;17.20;99.90;;;;;;5059987;28;25074;-64
2021/07/27 02:20:37;;;;;;;142.32;62.25;;;17.20;99.90;;;;;;5065101;28;25067;-64
2021/07/27 02:23:06;;;;;;;138.48;59.95;;;17.20;99.90;;;;;;5069994;28;25107;-64
2021/07/27 02:25:32;;;;;;;139.73;61.55;;;17.30;99.90;;;;;;5063321;28;25054;-65
2021/07/27 02:27:58;;;;;;;160.07;64.72;;;17.20;99.90;;;;;;5065760;28;25082;-63
2021/07/27 02:30:36;;;;;;;155.50;63.65;;;17.20;99.90;;;;;;5070108;28;25058;-64
2021/07/27 02:33:02;;;;;;;145.32;63.97;;;17.10;99.90;;;;;;5060606;28;25080;-65
2021/07/27 02:35:29;;;;;;;150.55;63.60;;;17.10;99.90;;;;;;5075542;28;25150;-64
2021/07/27 02:37:54;;;;;;;150.68;62.72;;;17.10;99.90;;;;;;5072113;28;25051;-64
2021/07/27 02:40:20;;;;;;;124.55;59.80;;;17.10;99.90;;;;;;5065131;28;25071;-65
2021/07/27 02:42:48;;;;;;;150.85;65.00;;;17.10;99.90;;;;;;5068409;28;25076;-64
2021/07/27 02:45:13;;;;;;;132.18;62.28;;;17.00;99.90;;;;;;5068315;28;25148;-66
2021/07/27 02:47:40;;;;;;;122.65;59.45;;;17.00;99.90;;;;;;5074111;28;25073;-64
2021/07/27 02:50:08;;;;;;;145.77;63.22;;;17.00;99.90;;;;;;5067542;28;25077;-64
2021/07/27 02:52:33;;;;;;;155.00;63.72;;;17.10;99.90;;;;;;5065011;28;25161;-64
2021/07/27 02:54:59;;;;;;;140.35;62.65;;;17.10;99.90;;;;;;5067246;28;25101;-63
2021/07/27 02:57:25;;;;;;;150.55;63.58;;;17.00;99.90;;;;;;5064445;28;25147;-64
2021/07/27 02:59:50;;;;;;;146.27;63.88;;;17.00;99.90;;;;;;5073107;28;25060;-64
2021/07/27 03:02:19;;;;;;;148.57;62.40;;;17.00;99.90;;;;;;5069195;28;25066;-64
2021/07/27 03:04:44;;;;;;;169.10;66.13;;;17.00;99.90;;;;;;5069036;28;25070;-65
2021/07/27 03:07:18;;;;;;;153.98;62.70;;;16.90;99.90;;;;;;5063025;28;25052;-65
2021/07/27 03:10:17;;;;;;;143.65;62.10;;;16.90;99.90;;;;;;5060997;28;25075;-64
2021/07/27 03:12:30;;;;;;;153.45;62.10;;;16.90;99.90;;;;;;5053267;28;25142;-65
2021/07/27 03:15:00;;;;;;;133.90;59.17;;;16.80;99.90;;;;;;5059672;28;25067;-64
2021/07/27 03:17:26;;;;;;;110.78;53.50;;;16.90;99.90;;;;;;5060988;28;25102;-64
2021/07/27 03:19:52;;;;;;;144.07;58.28;;;16.90;99.90;;;;;;5062970;28;25076;-63
2021/07/27 03:22:18;;;;;;;107.40;52.42;;;16.80;99.90;;;;;;5065115;28;25069;-64
2021/07/27 03:24:44;;;;;;;106.65;50.63;;;16.80;99.90;;;;;;5060541;28;25062;-63
2021/07/27 03:27:12;;;;;;;94.03;47.78;;;16.80;99.90;;;;;;5065037;28;25078;-64
2021/07/27 03:29:38;;;;;;;84.30;42.92;;;16.80;99.90;;;;;;5062875;28;25066;-64
2021/07/27 03:32:04;;;;;;;81.53;41.58;;;16.80;99.90;;;;;;5066486;28;25052;-64
2021/07/27 03:34:29;;;;;;;75.63;38.90;;;16.80;99.90;;;;;;5064081;28;25056;-64
2021/07/27 03:36:55;;;;;;;65.95;35.85;;;16.80;99.90;;;;;;5064535;28;25094;-65
2021/07/27 03:39:20;;;;;;;69.38;36.50;;;16.70;99.90;;;;;;5066303;28;25146;-63
2021/07/27 03:41:46;;;;;;;71.95;38.35;;;16.70;99.90;;;;;;5066066;28;25073;-63
2021/07/27 03:44:14;;;;;;;66.38;35.80;;;16.70;99.90;;;;;;5065996;28;25075;-63
2021/07/27 03:46:46;;;;;;;66.43;35.92;;;16.80;99.90;;;;;;5055527;28;25099;-64
2021/07/27 03:49:12;;;;;;;81.77;38.40;;;16.70;99.90;;;;;;5065263;28;25071;-64
2021/07/27 03:51:37;;;;;;;72.07;39.40;;;16.70;99.90;;;;;;5052227;28;25099;-64
2021/07/27 03:54:03;;;;;;;74.25;38.83;;;16.70;99.90;;;;;;5063602;28;25063;-64
2021/07/27 03:56:29;;;;;;;79.53;40.88;;;16.70;99.90;;;;;;5079365;28;25066;-64
2021/07/27 03:58:55;;;;;;;76.55;38.95;;;16.80;99.90;;;;;;5063536;28;25058;-65
2021/07/27 04:01:21;;;;;;;60.42;38.33;;;16.70;99.90;;;;;;5066379;28;25078;-64
2021/07/27 04:03:46;;;;;;;65.72;36.95;;;16.70;99.90;;;;;;5065921;28;25078;-64
2021/07/27 04:06:15;;;;;;;74.90;39.15;;;16.80;99.90;;;;;;5056592;28;25141;-64
2021/07/27 04:08:40;;;;;;;86.93;41.28;;;16.80;99.90;;;;;;5061974;28;25069;-64
2021/07/27 04:11:07;;;;;;;81.93;41.95;;;16.80;99.90;;;;;;5067346;28;25057;-64
2021/07/27 04:13:33;;;;;;;64.45;38.33;;;16.70;99.90;;;;;;5067868;28;25058;-64
2021/07/27 04:16:01;;;;;;;61.22;35.78;;;16.70;99.90;;;;;;5066551;28;25068;-64
2021/07/27 04:18:27;;;;;;;74.50;38.83;;;16.70;99.90;;;;;;5063087;28;25137;-64
2021/07/27 04:21:00;;;;;;;77.78;38.97;;;16.70;99.90;;;;;;5058832;28;25053;-64
2021/07/27 04:23:26;;;;;;;63.50;36.40;;;16.70;99.90;;;;;;5059810;28;25142;-66
2021/07/27 04:25:52;;;;;;;66.93;36.67;;;16.80;99.90;;;;;;5065760;28;25078;-67
2021/07/27 04:28:18;;;;;;;53.53;35.33;;;16.70;99.90;;;;;;5069600;28;25072;-66
2021/07/27 04:30:43;;;;;;;66.60;36.38;;;16.70;99.90;;;;;;5070720;28;25130;-65
2021/07/27 04:33:09;;;;;;;58.72;35.78;;;16.70;99.90;;;;;;5068710;28;25091;-66
2021/07/27 04:35:36;;;;;;;56.50;34.53;;;16.70;99.90;;;;;;5060179;28;25078;-66
2021/07/27 04:38:02;;;;;;;59.85;34.10;;;16.80;99.90;;;;;;5068136;28;25075;-65
2021/07/27 04:40:28;;;;;;;47.78;32.22;;;16.80;99.90;;;;;;5069618;28;25087;-64
2021/07/27 04:42:53;;;;;;;54.42;31.45;;;16.90;99.90;;;;;;5061476;28;25074;-64
2021/07/27 04:45:19;;;;;;;58.10;34.92;;;16.90;99.90;;;;;;5049849;28;25147;-64
2021/07/27 04:47:45;;;;;;;54.45;33.08;;;16.90;99.90;;;;;;5065040;28;25069;-65
2021/07/27 04:50:10;;;;;;;56.53;33.28;;;16.80;99.90;;;;;;5061905;28;25152;-64
2021/07/27 04:52:37;;;;;;;52.83;31.90;;;16.80;99.90;;;;;;5060672;28;25107;-65
2021/07/27 04:55:04;;;;;;;54.88;33.05;;;16.80;99.90;;;;;;5068837;28;25124;-66
2021/07/27 04:57:32;;;;;;;54.38;33.20;;;16.90;99.90;;;;;;5072078;28;25077;-63
2021/07/27 04:59:57;;;;;;;55.03;32.10;;;17.00;99.90;;;;;;5068795;28;25049;-64
2021/07/27 05:02:23;;;;;;;58.72;33.30;;;17.00;99.90;;;;;;5062542;28;25077;-66
2021/07/27 05:04:49;;;;;;;54.92;31.60;;;17.10;99.90;;;;;;5065044;28;25040;-66
2021/07/27 05:07:14;;;;;;;50.90;31.65;;;17.10;99.90;;;;;;5063872;28;25085;-65
2021/07/27 05:09:40;;;;;;;53.42;31.77;;;17.20;99.90;;;;;;5059082;28;25130;-65
2021/07/27 05:12:06;;;;;;;53.60;34.03;;;17.20;99.90;;;;;;5057777;28;25099;-64
2021/07/27 05:14:31;;;;;;;50.58;32.45;;;17.30;99.90;;;;;;5066604;28;25097;-64
2021/07/27 05:17:06;;;;;;;54.10;34.38;;;17.30;99.90;;;;;;5062312;28;25101;-65
2021/07/27 05:19:32;;;;;;;51.88;32.85;;;17.30;99.90;;;;;;5055223;28;25131;-64
2021/07/27 05:21:57;;;;;;;52.80;33.42;;;17.30;99.90;;;;;;5056450;28;25112;-65
2021/07/27 05:24:23;;;;;;;51.78;32.90;;;17.30;99.90;;;;;;5060712;28;25133;-66
2021/07/27 05:26:49;;;;;;;51.08;32.55;;;17.30;99.90;;;;;;5054876;28;25124;-66
2021/07/27 05:29:17;;;;;;;53.03;31.83;;;17.30;99.90;;;;;;5062427;28;25129;-65
2021/07/27 05:31:43;;;;;;;57.05;33.50;;;17.30;99.90;;;;;;5063593;28;25077;-66
2021/07/27 05:34:09;;;;;;;57.47;32.97;;;17.30;99.90;;;;;;5056431;28;25068;-64
2021/07/27 05:36:35;;;;;;;62.88;33.45;;;17.40;99.90;;;;;;5059349;28;25051;-69
2021/07/27 05:39:01;;;;;;;65.15;34.38;;;17.40;99.90;;;;;;5053082;28;25082;-64
2021/07/27 05:41:27;;;;;;;57.92;33.60;;;17.30;99.90;;;;;;5060628;28;25071;-65
2021/07/27 05:43:53;;;;;;;59.10;33.90;;;17.40;99.90;;;;;;5060129;28;25071;-67
2021/07/27 05:46:18;;;;;;;54.55;30.40;;;17.50;99.90;;;;;;5063992;28;25049;-65
2021/07/27 05:48:46;;;;;;;54.25;32.60;;;17.50;99.90;;;;;;5065991;28;25105;-66
2021/07/27 05:51:14;;;;;;;57.33;31.92;;;17.40;99.90;;;;;;5066340;28;25065;-65
2021/07/27 05:53:41;;;;;;;55.83;33.47;;;17.50;99.90;;;;;;5075832;28;25133;-65
2021/07/27 05:56:07;;;;;;;52.03;32.38;;;17.50;99.90;;;;;;5059588;28;25070;-65
2021/07/27 05:58:33;;;;;;;51.35;31.13;;;17.50;99.90;;;;;;5071099;28;25131;-66
2021/07/27 06:00:58;;;;;;;50.00;32.53;;;17.50;99.90;;;;;;5062938;28;25130;-66
2021/07/27 06:03:24;;;;;;;51.28;32.00;;;17.60;99.90;;;;;;5053149;28;25106;-66
2021/07/27 06:05:53;;;;;;;46.47;28.63;;;17.60;99.90;;;;;;5065840;28;25081;-65
2021/07/27 06:08:18;;;;;;;62.03;31.15;;;17.60;99.90;;;;;;5060444;28;25068;-66
2021/07/27 06:10:44;;;;;;;50.47;32.55;;;17.60;99.90;;;;;;5065524;28;25118;-66
2021/07/27 06:13:09;;;;;;;54.63;30.73;;;17.60;99.90;;;;;;5054429;28;25074;-64
2021/07/27 06:15:35;;;;;;;51.40;32.00;;;17.60;99.90;;;;;;5066902;28;25060;-64
2021/07/27 06:18:00;;;;;;;48.88;30.02;;;17.60;99.90;;;;;;5066000;28;25078;-67
2021/07/27 06:20:26;;;;;;;47.28;29.05;;;17.70;99.90;;;;;;5064402;28;25140;-66
2021/07/27 06:22:51;;;;;;;42.65;28.30;;;17.80;99.90;;;;;;5069234;28;25056;-65
2021/07/27 06:25:17;;;;;;;44.35;29.85;;;17.90;99.90;;;;;;5063203;28;25070;-64
2021/07/27 06:27:42;;;;;;;47.67;27.95;;;17.90;99.90;;;;;;5069070;28;25062;-66
2021/07/27 06:30:10;;;;;;;48.08;29.92;;;17.90;99.90;;;;;;5068809;28;25066;-66
2021/07/27 06:32:36;;;;;;;49.42;30.73;;;17.90;99.90;;;;;;5070427;28;25065;-64
2021/07/27 06:35:01;;;;;;;57.38;33.92;;;17.90;99.90;;;;;;5069625;28;25127;-66
2021/07/27 06:37:27;;;;;;;53.20;33.80;;;17.90;99.90;;;;;;5075571;28;25073;-65
2021/07/27 06:39:52;;;;;;;51.15;32.58;;;17.90;99.90;;;;;;5069877;28;25126;-64
2021/07/27 06:42:18;;;;;;;53.65;32.72;;;18.00;99.90;;;;;;5068764;28;25062;-66
2021/07/27 06:44:44;;;;;;;50.15;32.13;;;18.00;99.90;;;;;;5070105;28;25055;-66
2021/07/27 06:47:09;;;;;;;56.40;32.45;;;18.00;99.90;;;;;;5069960;28;25095;-65
2021/07/27 06:49:35;;;;;;;49.28;31.20;;;17.90;99.90;;;;;;5082675;28;25114;-67
2021/07/27 06:52:00;;;;;;;51.35;33.95;;;17.90;99.90;;;;;;5069861;28;25103;-65
2021/07/27 06:54:26;;;;;;;48.40;31.52;;;18.00;99.90;;;;;;5066443;28;25128;-65
2021/07/27 06:56:55;;;;;;;46.58;31.48;;;18.20;99.90;;;;;;5069362;28;25074;-66
2021/07/27 06:59:23;;;;;;;51.20;32.50;;;18.20;99.90;;;;;;5061504;28;25065;-67
2021/07/27 07:01:52;;;;;;;53.47;31.55;;;18.20;99.90;;;;;;5068170;28;25084;-65
2021/07/27 07:04:17;;;;;;;46.30;29.75;;;18.20;99.90;;;;;;5077191;28;25084;-66
2021/07/27 07:06:43;;;;;;;54.78;30.73;;;18.10;99.90;;;;;;5079511;28;25109;-65
2021/07/27 07:09:09;;;;;;;49.72;31.13;;;18.10;99.90;;;;;;5068314;28;25084;-66
2021/07/27 07:11:35;;;;;;;48.63;29.75;;;18.20;99.90;;;;;;5063030;28;25069;-64
2021/07/27 07:14:01;;;;;;;43.10;29.95;;;18.30;99.90;;;;;;5062689;28;25078;-65
2021/07/27 07:16:26;;;;;;;47.20;30.60;;;18.40;99.90;;;;;;5071804;28;25122;-67
2021/07/27 07:18:52;;;;;;;46.95;28.95;;;18.60;99.90;;;;;;5075269;28;25080;-66
2021/07/27 07:21:18;;;;;;;46.55;30.02;;;18.70;99.90;;;;;;5060197;28;25068;-66
2021/07/27 07:23:43;;;;;;;42.10;27.52;;;18.50;99.90;;;;;;5064005;28;25144;-63
2021/07/27 07:26:09;;;;;;;43.33;27.23;;;18.60;99.90;;;;;;5068939;28;25069;-65
2021/07/27 07:28:37;;;;;;;46.80;28.10;;;18.80;99.90;;;;;;5082510;28;25072;-66
2021/07/27 07:31:03;;;;;;;44.85;28.42;;;19.10;99.90;;;;;;5070842;28;25112;-66
2021/07/27 07:33:29;;;;;;;47.47;29.70;;;19.30;99.90;;;;;;5072252;28;25126;-68
2021/07/27 07:35:54;;;;;;;48.67;30.02;;;19.20;99.90;;;;;;5081012;28;25114;-65
2021/07/27 07:38:20;;;;;;;49.42;29.83;;;19.00;99.90;;;;;;5067868;28;25073;-66
2021/07/27 07:40:46;;;;;;;51.28;31.45;;;19.00;99.90;;;;;;5074253;28;25071;-66
2021/07/27 07:43:11;;;;;;;47.60;31.67;;;18.90;99.90;;;;;;5075422;28;25090;-66
2021/07/27 07:45:37;;;;;;;52.22;32.88;;;18.90;99.90;;;;;;5074357;28;25086;-67
2021/07/27 07:48:03;;;;;;;50.90;33.05;;;18.80;99.90;;;;;;5068549;28;25059;-66
2021/07/27 07:50:29;;;;;;;53.35;35.15;;;18.90;99.90;;;;;;5082505;28;25136;-66
2021/07/27 07:53:03;;;;;;;51.67;35.30;;;19.10;99.90;;;;;;5068594;28;24817;-66
2021/07/27 07:55:29;;;;;;;45.55;34.40;;;19.10;99.90;;;;;;5068927;28;25078;-66
2021/07/27 07:57:55;;;;;;;54.08;35.13;;;19.00;99.90;;;;;;5084513;28;25073;-65
2021/07/27 08:00:23;;;;;;;56.67;37.03;;;19.00;99.90;;;;;;5071678;28;25131;-68
2021/07/27 08:02:52;;;;;;;48.03;34.30;;;19.00;99.90;;;;;;5057226;28;25056;-68
2021/07/27 08:05:18;;;;;;;54.35;35.20;;;18.80;99.90;;;;;;5071876;28;25058;-66
2021/07/27 08:07:45;;;;;;;56.15;35.92;;;18.70;99.90;;;;;;5068149;28;25063;-68
2021/07/27 08:10:12;;;;;;;51.33;35.35;;;18.60;99.90;;;;;;5069115;28;25066;-67
2021/07/27 08:12:37;;;;;;;49.22;35.58;;;18.70;99.90;;;;;;5072893;28;25059;-67
2021/07/27 08:15:03;;;;;;;54.35;34.20;;;18.80;99.90;;;;;;5084308;28;25077;-65
2021/07/27 08:17:29;;;;;;;51.60;35.13;;;18.90;99.90;;;;;;5073184;28;25065;-70
2021/07/27 08:19:54;;;;;;;43.10;32.90;;;19.10;99.90;;;;;;5059776;28;25074;-66
2021/07/27 08:22:20;;;;;;;46.58;32.67;;;19.00;99.90;;;;;;5077891;28;25094;-67
2021/07/27 08:24:45;;;;;;;49.95;35.15;;;18.90;99.90;;;;;;5072181;28;25073;-67
2021/07/27 08:27:11;;;;;;;48.33;34.92;;;18.80;99.90;;;;;;5073924;28;25105;-65
2021/07/27 08:29:37;;;;;;;48.75;31.55;;;18.90;99.90;;;;;;5051648;28;25139;-66
2021/07/27 08:32:08;;;;;;;41.00;27.77;;;18.80;99.90;;;;;;5072701;28;25061;-66
2021/07/27 08:34:38;;;;;;;38.63;26.65;;;18.90;99.90;;;;;;5074504;28;25050;-67
2021/07/27 08:37:04;;;;;;;35.17;26.67;;;18.90;99.90;;;;;;5078453;28;25052;-66
2021/07/27 08:39:31;;;;;;;28.52;21.60;;;18.90;99.90;;;;;;5071542;28;25075;-66
2021/07/27 08:42:02;;;;;;;26.55;18.95;;;19.00;99.90;;;;;;5067135;28;25145;-66
2021/07/27 08:44:34;;;;;;;28.88;18.00;;;18.90;99.90;;;;;;5068027;28;25071;-67
2021/07/27 08:47:06;;;;;;;;;;;18.80;99.90;;;;;;5068813;28;25068;-67
2021/07/27 08:49:33;;;;;;;23.15;17.77;;;18.80;99.90;;;;;;5072906;28;25126;-66
2021/07/27 08:52:00;;;;;;;25.35;19.20;;;18.70;99.90;;;;;;5062628;28;25062;-64
2021/07/27 08:54:26;;;;;;;28.10;20.88;;;18.60;99.90;;;;;;5064896;28;25065;-66
2021/07/27 08:56:53;;;;;;;33.78;20.25;;;18.60;99.90;;;;;;5058409;28;25048;-66
2021/07/27 08:59:20;;;;;;;28.70;20.27;;;18.60;99.90;;;;;;5039822;28;25060;-66
2021/07/27 09:01:46;;;;;;;24.88;19.05;;;18.60;99.90;;;;;;5065565;28;25124;-65
2021/07/27 09:04:11;;;;;;;29.75;20.55;;;18.60;99.90;;;;;;5056628;28;25163;-64
2021/07/27 09:06:37;;;;;;;27.70;18.52;;;18.60;99.90;;;;;;5067769;28;25124;-65
2021/07/27 09:09:04;;;;;;;29.02;19.73;;;18.70;99.90;;;;;;5060885;28;25064;-65
2021/07/27 09:11:29;;;;;;;25.85;20.05;;;18.70;99.90;;;;;;5067960;28;25100;-66
2021/07/27 09:13:58;;;;;;;27.05;20.15;;;18.70;99.90;;;;;;5061211;28;25125;-66
2021/07/27 09:16:24;;;;;;;24.67;18.95;;;18.70;99.90;;;;;;5067090;28;25079;-66
2021/07/27 09:19:00;;;;;;;26.63;19.75;;;18.70;99.90;;;;;;5061577;28;25058;-66
2021/07/27 09:21:27;;;;;;;29.30;20.27;;;18.60;99.90;;;;;;5064098;28;25084;-67
2021/07/27 09:23:52;;;;;;;30.52;21.55;;;18.60;99.90;;;;;;5066357;28;25149;-67
2021/07/27 09:26:21;;;;;;;27.17;19.83;;;18.50;99.90;;;;;;5067965;28;25056;-67
2021/07/27 09:28:48;;;;;;;29.42;21.05;;;18.50;99.90;;;;;;5067489;28;25105;-66
2021/07/27 09:31:14;;;;;;;34.72;23.17;;;18.50;99.90;;;;;;5069079;28;25184;-68
2021/07/27 09:33:39;;;;;;;34.65;22.92;;;18.50;99.90;;;;;;5055604;28;25118;-66
2021/07/27 09:36:05;;;;;;;37.50;24.73;;;18.60;99.90;;;;;;5076390;28;25051;-68
2021/07/27 09:38:32;;;;;;;38.28;26.15;;;18.50;99.90;;;;;;5067254;28;25140;-66
2021/07/27 09:41:00;;;;;;;34.63;24.33;;;18.60;99.90;;;;;;5068319;28;25056;-67
2021/07/27 09:43:27;;;;;;;35.22;25.02;;;18.40;99.90;;;;;;5075322;28;25496;-65
2021/07/27 09:45:56;;;;;;;44.28;25.85;;;18.40;99.90;;;;;;5063824;28;25072;-65
2021/07/27 09:48:23;;;;;;;43.22;27.73;;;18.40;99.90;;;;;;5069112;28;24725;-64
2021/07/27 09:50:53;;;;;;;43.75;27.15;;;18.20;99.90;;;;;;5083672;28;25118;-65
2021/07/27 09:53:19;;;;;;;45.97;27.60;;;18.20;99.90;;;;;;5071404;28;25129;-64
2021/07/27 09:55:45;;;;;;;35.67;25.90;;;18.20;99.90;;;;;;5071776;28;25058;-69
2021/07/27 09:58:11;;;;;;;42.17;24.42;;;18.10;99.90;;;;;;5072302;28;25081;-65
2021/07/27 10:00:58;;;;;;;38.45;21.52;;;18.10;99.90;;;;;;5070248;28;25050;-64
2021/07/27 10:03:34;;;;;;;25.90;17.35;;;18.10;99.90;;;;;;5084763;28;25134;-64
2021/07/27 10:06:01;;;;;;;20.60;15.00;;;18.10;99.90;;;;;;5065537;28;25088;-68
2021/07/27 10:08:34;;;;;;;22.80;14.00;;;17.90;99.90;;;;;;5077209;28;25064;-64
2021/07/27 10:11:10;;;;;;;18.40;12.63;;;17.90;99.90;;;;;;5057738;28;25070;-65
2021/07/27 10:13:37;;;;;;;19.00;11.63;;;17.70;99.90;;;;;;5070676;28;25156;-64
2021/07/27 10:16:03;;;;;;;16.30;11.10;;;17.50;99.90;;;;;;5062103;28;25120;-64
2021/07/27 10:18:32;;;;;;;17.50;11.27;;;17.40;99.90;;;;;;5090980;28;25058;-65
2021/07/27 10:21:24;;;;;;;19.23;11.68;;;17.40;99.90;;;;;;5066316;28;25131;-65
2021/07/27 10:23:57;;;;;;;19.20;11.63;;;17.40;99.90;;;;;;5083876;28;25089;-64
2021/07/27 10:26:27;;;;;;;22.00;11.43;;;17.40;99.90;;;;;;5069559;28;25062;-64
2021/07/27 10:28:54;;;;;;;21.40;11.68;;;17.40;99.90;;;;;;5069842;28;25057;-65
2021/07/27 10:31:33;;;;;;;18.55;11.80;;;17.50;99.90;;;;;;5067734;28;25148;-64
2021/07/27 10:34:00;;;;;;;21.90;12.40;;;17.50;99.90;;;;;;5076911;28;25058;-65
2021/07/27 10:36:27;;;;;;;19.10;13.00;;;17.60;99.90;;;;;;5068261;28;25044;-64
2021/07/27 10:39:05;;;;;;;17.63;11.80;;;17.50;99.90;;;;;;5047395;28;25122;-64
2021/07/27 10:41:35;;;;;;;14.45;10.75;;;17.50;99.90;;;;;;5070581;28;25119;-64
2021/07/27 10:44:09;;;;;;;13.88;9.93;;;17.50;99.90;;;;;;5068976;28;25073;-63
2021/07/27 10:46:37;;;;;;;16.85;10.38;;;17.50;99.90;;;;;;5069671;28;25088;-63
2021/07/27 10:49:02;;;;;;;14.85;9.88;;;17.60;99.90;;;;;;5072492;28;25060;-64
2021/07/27 10:51:35;;;;;;;16.67;10.10;;;17.70;99.90;;;;;;5047569;28;25056;-64
2021/07/27 10:54:01;;;;;;;12.77;9.65;;;17.70;99.90;;;;;;5055911;28;25053;-64
2021/07/27 10:56:31;;;;;;;13.82;10.65;;;17.70;99.90;;;;;;5062200;28;25080;-65
2021/07/27 10:58:57;;;;;;;16.35;10.95;;;17.80;99.90;;;;;;5051356;28;25134;-63
2021/07/27 11:01:28;;;;;;;19.10;12.50;;;18.10;99.90;;;;;;5062250;28;25147;-65
2021/07/27 11:03:55;;;;;;;17.80;13.55;;;18.50;99.90;;;;;;5068426;28;25064;-64
2021/07/27 11:06:21;;;;;;;14.63;11.98;;;18.90;99.90;;;;;;5063613;28;25112;-65
2021/07/27 11:08:47;;;;;;;15.50;11.38;;;18.80;99.90;;;;;;5056464;28;25112;-65
2021/07/27 11:11:15;;;;;;;14.88;11.13;;;18.70;99.90;;;;;;5063009;28;25060;-64
2021/07/27 11:13:52;;;;;;;13.25;8.23;;;18.60;99.90;;;;;;5061210;28;25136;-66
2021/07/27 11:16:18;;;;;;;14.43;7.82;;;18.50;99.90;;;;;;5066390;28;25063;-65
2021/07/27 11:18:44;;;;;;;11.13;6.63;;;18.60;99.90;;;;;;5062467;28;25074;-63
2021/07/27 11:21:10;;;;;;;11.68;5.97;;;18.60;99.90;;;;;;5069263;28;25075;-64
2021/07/27 11:23:37;;;;;;;5.65;4.10;;;18.90;99.90;;;;;;5075341;28;25075;-65
2021/07/27 11:26:04;;;;;;;5.88;4.40;;;19.10;99.90;;;;;;5069713;28;25065;-65
2021/07/27 11:28:37;;;;;;;7.10;4.95;;;19.20;99.90;;;;;;5065971;28;25164;-66
2021/07/27 11:31:17;;;;;;;6.43;4.45;;;19.30;99.90;;;;;;5072588;28;25055;-65
2021/07/27 11:33:50;;;;;;;7.57;3.90;;;19.70;99.90;;;;;;5071526;28;25073;-66
2021/07/27 11:36:26;;;;;;;5.18;3.95;;;19.50;99.90;;;;;;5070212;28;25047;-65
2021/07/27 11:39:03;;;;;;;6.05;3.67;;;19.50;99.90;;;;;;5067482;28;25069;-65
2021/07/27 11:41:28;;;;;;;6.55;4.00;;;19.60;99.90;;;;;;5067438;28;25523;-65
2021/07/27 11:43:56;;;;;;;5.40;3.75;;;19.90;99.90;;;;;;5067870;28;25062;-66
2021/07/27 11:46:38;;;;;;;8.70;4.70;;;19.80;99.90;;;;;;5068191;28;25063;-65
2021/07/27 11:49:08;;;;;;;8.50;4.75;;;20.00;99.90;;;;;;5058371;28;25059;-64
2021/07/27 11:51:36;;;;;;;4.45;4.05;;;20.10;99.90;;;;;;5074880;28;25059;-67
2021/07/27 11:54:01;;;;;;;8.35;4.70;;;20.30;99.90;;;;;;5073436;28;25109;-67
2021/07/27 11:56:27;;;;;;;7.30;4.75;;;20.50;99.90;;;;;;5073546;28;25060;-67
2021/07/27 11:59:05;;;;;;;8.07;4.97;;;20.50;99.90;;;;;;5077091;28;24923;-66
2021/07/27 12:01:41;;;;;;;8.55;5.15;;;20.30;99.90;;;;;;5077908;28;25059;-68
2021/07/27 12:04:07;;;;;;;9.45;5.15;;;20.20;99.90;;;;;;5075292;28;25077;-67
2021/07/27 12:06:45;;;;;;;9.35;4.95;;;20.20;99.90;;;;;;5088605;28;25067;-67
2021/07/27 12:09:10;;;;;;;7.10;5.18;;;20.10;99.90;;;;;;5066959;28;25078;-65
2021/07/27 12:11:36;;;;;;;8.73;5.82;;;20.20;99.90;;;;;;5068346;28;25153;-67
2021/07/27 12:14:02;;;;;;;8.45;4.53;;;20.60;99.90;;;;;;5066227;28;25107;-66
2021/07/27 12:16:30;;;;;;;8.07;4.70;;;20.50;99.90;;;;;;5067930;28;25054;-65
2021/07/27 12:18:56;;;;;;;9.63;4.68;;;20.60;99.90;;;;;;5053468;28;25083;-67
2021/07/27 12:21:21;;;;;;;6.82;4.68;;;20.70;99.90;;;;;;5057543;28;25067;-65
2021/07/27 12:23:47;;;;;;;7.05;5.30;;;20.80;99.90;;;;;;5067445;28;25122;-66
2021/07/27 12:26:12;;;;;;;7.28;5.30;;;20.70;99.90;;;;;;5068755;28;25098;-67
2021/07/27 12:28:38;;;;;;;8.02;4.53;;;20.50;99.90;;;;;;5066164;28;25058;-68
2021/07/27 12:31:04;;;;;;;8.90;4.85;;;20.40;99.90;;;;;;5064934;28;25129;-68
2021/07/27 12:33:30;;;;;;;7.85;4.70;;;20.60;99.90;;;;;;5068373;28;25107;-66
2021/07/27 12:35:59;;;;;;;6.70;4.63;;;20.90;99.90;;;;;;5071793;28;25132;-66
2021/07/27 12:38:25;;;;;;;8.52;5.15;;;21.20;99.90;;;;;;5050382;28;25126;-66
2021/07/27 12:40:50;;;;;;;8.52;5.93;;;21.50;99.90;;;;;;5068761;28;25125;-66
2021/07/27 12:43:16;;;;;;;7.13;4.50;;;21.70;99.90;;;;;;5068483;28;25063;-67
2021/07/27 12:45:43;;;;;;;10.30;5.35;;;22.00;99.90;;;;;;5066609;28;25058;-68
2021/07/27 12:48:09;;;;;;;10.50;4.78;;;22.10;99.90;;;;;;5068683;28;25131;-67